createdAt,value
2022-07-29T00:01:59.248Z,100278.25
2022-07-29T00:07:01.895Z,100267.13
2022-07-29T00:12:07.681Z,100267.28
2022-07-29T00:17:12.673Z,100256.25
2022-07-29T00:22:22.099Z,100246.81
2022-07-29T00:27:26.240Z,100244.38
2022-07-29T00:32:29.011Z,100222.94
2022-07-29T00:37:31.859Z,100212.50
2022-07-29T00:42:45.245Z,100200.22
2022-07-29T00:47:48.182Z,100206.97
2022-07-29T00:52:52.369Z,100195.53
2022-07-29T00:57:58.476Z,100196.81
2022-07-29T01:03:01.169Z,100198.94
2022-07-29T01:08:04.811Z,100195.78
2022-07-29T01:13:10.367Z,100189.63
2022-07-29T01:18:18.804Z,100195.38
2022-07-29T01:23:51.838Z,100186.63
2022-07-29T01:29:07.496Z,100183.34
2022-07-29T01:34:16.301Z,100174.66
2022-07-29T01:39:25.422Z,100184.94
2022-07-29T01:44:35.017Z,100184.38
2022-07-29T01:49:42.021Z,100179.94
2022-07-29T01:54:50.892Z,100181.22
2022-07-29T01:59:56.705Z,100168.78
2022-07-29T02:05:01.327Z,100163.66
2022-07-29T02:10:05.551Z,100159.34
2022-07-29T02:15:11.518Z,100164.09
2022-07-29T02:20:15.420Z,100163.50
2022-07-29T02:25:19.543Z,100158.38
2022-07-29T02:30:24.903Z,100153.91
2022-07-29T02:35:28.515Z,100154.06
2022-07-29T02:40:41.612Z,100161.50
2022-07-29T02:45:51.697Z,100144.63
2022-07-29T02:51:03.594Z,100144.78
2022-07-29T02:56:09.946Z,100143.94
2022-07-29T03:01:21.664Z,100150.38
2022-07-29T03:06:37.802Z,100144.09
2022-07-29T03:11:49.719Z,100141.50
2022-07-29T03:16:55.364Z,100137.34
2022-07-29T03:21:58.980Z,100134.19
2022-07-29T03:27:02.207Z,100141.91
2022-07-29T03:32:08.854Z,100141.31
2022-07-29T03:37:11.714Z,100148.00
2022-07-29T03:42:17.254Z,100151.00
2022-07-29T03:47:35.189Z,100149.41
2022-07-29T03:52:50.437Z,100145.41
2022-07-29T03:57:54.266Z,100154.00
2022-07-29T04:02:58.921Z,100165.09
2022-07-29T04:08:01.868Z,100156.38
2022-07-29T04:13:04.551Z,100147.69
2022-07-29T04:18:08.574Z,100156.81
2022-07-29T04:23:11.326Z,100157.78
2022-07-29T04:28:13.988Z,100155.53
2022-07-29T04:33:21.193Z,100164.91
2022-07-29T04:38:27.551Z,100160.63
2022-07-29T04:43:30.322Z,100174.59
2022-07-29T04:48:41.061Z,100168.09
2022-07-29T04:53:43.810Z,100172.94
2022-07-29T04:58:46.484Z,100175.63
2022-07-29T05:03:50.729Z,100166.66
2022-07-29T05:08:53.387Z,100166.81
2022-07-29T05:13:56.102Z,100168.50
2022-07-29T05:19:00.185Z,100165.22
2022-07-29T05:24:03.011Z,100162.63
2022-07-29T05:29:05.688Z,100162.63
2022-07-29T05:34:09.953Z,100172.38
2022-07-29T05:39:13.793Z,100166.19
2022-07-29T05:44:16.963Z,100168.19
2022-07-29T05:49:27.033Z,100167.94
2022-07-29T05:54:30.150Z,100167.78
2022-07-29T05:59:32.989Z,100163.38
2022-07-29T06:04:37.117Z,100168.91
2022-07-29T06:09:39.998Z,100172.38
2022-07-29T06:14:42.710Z,100164.22
2022-07-29T06:19:47.144Z,100160.66
2022-07-29T06:24:49.833Z,100167.66
2022-07-29T06:29:52.550Z,100168.50
2022-07-29T06:35:11.830Z,100173.81
2022-07-29T06:40:36.998Z,100172.81
2022-07-29T06:45:42.027Z,100160.97
2022-07-29T06:50:46.793Z,100167.25
2022-07-29T06:55:49.773Z,100163.84
2022-07-29T07:00:52.506Z,100165.53
2022-07-29T07:05:56.981Z,100172.06
2022-07-29T07:10:59.676Z,100171.97
2022-07-29T07:16:03.025Z,100175.63
2022-07-29T07:21:07.262Z,100171.97
2022-07-29T07:26:09.983Z,100174.94
2022-07-29T07:31:12.864Z,100166.19
2022-07-29T07:36:16.934Z,100165.53
2022-07-29T07:41:20.612Z,100156.66
2022-07-29T07:46:23.494Z,100160.78
2022-07-29T07:51:27.899Z,100153.09
2022-07-29T07:56:35.040Z,100163.22
2022-07-29T08:01:47.912Z,100158.41
2022-07-29T08:07:00.340Z,100157.72
2022-07-29T08:12:04.629Z,100161.28
2022-07-29T08:17:07.465Z,100159.72
2022-07-29T08:22:11.809Z,100158.25
2022-07-29T08:27:40.885Z,100160.69
2022-07-29T08:32:55.254Z,100155.84
2022-07-29T08:37:59.804Z,100152.06
2022-07-29T08:43:08.345Z,100147.94
2022-07-29T08:48:13.935Z,100137.22
2022-07-29T08:53:19.481Z,100142.06
2022-07-29T08:58:25.061Z,100141.09
2022-07-29T09:03:33.576Z,100139.22
2022-07-29T09:08:37.587Z,100129.66
2022-07-29T09:13:40.309Z,100118.59
2022-07-29T09:18:45.139Z,100123.03
2022-07-29T09:24:04.275Z,100127.41
2022-07-29T09:29:11.990Z,100119.81
2022-07-29T09:34:18.280Z,100127.31
2022-07-29T09:39:32.104Z,100112.19
2022-07-29T09:44:45.830Z,100114.47
2022-07-29T09:49:58.851Z,100115.88
2022-07-29T09:55:17.860Z,100113.75
2022-07-29T10:00:23.853Z,100101.75
2022-07-29T10:05:36.610Z,100101.47
2022-07-29T10:10:43.431Z,100089.47
2022-07-29T10:15:47.321Z,100098.34
2022-07-29T10:20:50.642Z,100092.63
2022-07-29T10:25:55.322Z,100082.53
2022-07-29T10:31:03.805Z,100082.38
2022-07-29T10:36:20.911Z,100076.47
2022-07-29T10:41:44.735Z,100060.34
2022-07-29T10:46:48.871Z,100066.34
2022-07-29T10:52:03.594Z,100070.66
2022-07-29T10:57:18.497Z,100060.50
2022-07-29T11:02:45.079Z,100057.47
2022-07-29T11:08:21.207Z,100061.78
2022-07-29T11:13:52.217Z,100060.94
2022-07-29T11:19:29.795Z,100050.59
2022-07-29T11:24:34.977Z,100044.06
2022-07-29T11:29:43.106Z,100045.47
2022-07-29T11:34:46.218Z,100037.75
2022-07-29T11:40:09.875Z,100045.91
2022-07-29T11:45:43.713Z,100045.59
2022-07-29T11:50:45.469Z,100027.28
2022-07-29T11:55:58.128Z,100026.84
2022-07-29T12:01:04.759Z,100019.13
2022-07-29T12:06:15.055Z,100012.00
2022-07-29T12:11:21.228Z,100006.72
2022-07-29T12:16:37.833Z,99999.28
2022-07-29T12:21:52.304Z,99986.53
2022-07-29T12:27:00.429Z,99990.25
2022-07-29T12:32:14.528Z,99985.84
2022-07-29T12:37:33.317Z,99974.53
2022-07-29T12:43:07.373Z,99973.69
2022-07-29T12:48:12.089Z,99970.13
2022-07-29T12:53:15.522Z,99971.13
2022-07-29T12:58:34.803Z,99978.72
2022-07-29T13:03:57.141Z,99977.25
2022-07-29T13:09:02.380Z,99978.97
2022-07-29T13:14:07.194Z,99968.78
2022-07-29T13:19:13.982Z,99968.09
2022-07-29T13:24:19.776Z,99961.81
2022-07-29T13:29:22.654Z,99962.81
2022-07-29T13:34:27.444Z,99963.69
2022-07-29T13:39:31.138Z,99952.22
2022-07-29T13:44:33.997Z,99955.50
2022-07-29T13:49:38.215Z,99938.88
2022-07-29T13:54:42.584Z,99937.59
2022-07-29T13:59:48.471Z,99945.31
2022-07-29T14:04:56.337Z,99941.44
2022-07-29T14:09:59.147Z,99933.13
2022-07-29T14:15:01.921Z,99933.13
2022-07-29T14:20:07.427Z,99928.41
2022-07-29T14:25:15.000Z,99926.22
2022-07-29T14:30:18.178Z,99926.94
2022-07-29T14:35:22.239Z,99918.81
2022-07-29T14:40:26.632Z,99924.41
2022-07-29T14:45:30.135Z,99925.09
2022-07-29T14:50:34.448Z,99929.66
2022-07-29T14:55:37.448Z,99923.50
2022-07-29T15:00:40.298Z,99925.38
2022-07-29T15:05:44.390Z,99923.66
2022-07-29T15:10:47.282Z,99922.66
2022-07-29T15:15:50.829Z,99928.81
2022-07-29T15:20:55.049Z,99944.25
2022-07-29T15:25:57.767Z,99975.28
2022-07-29T15:31:00.473Z,99994.16
2022-07-29T15:36:05.605Z,99991.59
2022-07-29T15:41:08.693Z,99999.47
2022-07-29T15:46:32.897Z,100002.31
2022-07-29T15:51:37.561Z,99989.84
2022-07-29T15:56:40.314Z,99993.66
2022-07-29T16:01:43.122Z,99986.47
2022-07-29T16:06:48.509Z,99988.41
2022-07-29T16:11:53.559Z,99976.53
2022-07-29T16:16:57.048Z,99982.81
2022-07-29T16:22:01.365Z,99970.63
2022-07-29T16:27:04.223Z,99966.75
2022-07-29T16:32:07.919Z,99957.59
2022-07-29T16:37:12.183Z,99950.81
2022-07-29T16:42:31.015Z,99949.53
2022-07-29T16:47:38.019Z,99937.78
2022-07-29T16:52:42.289Z,99933.75
2022-07-29T16:57:45.500Z,99918.16
2022-07-29T17:02:48.343Z,99916.44
2022-07-29T17:07:52.495Z,99922.72
2022-07-29T17:12:55.291Z,99910.41
2022-07-29T17:17:58.862Z,99916.44
2022-07-29T17:23:03.053Z,99914.13
2022-07-29T17:28:05.976Z,99912.09
2022-07-29T17:33:08.681Z,99914.81
2022-07-29T17:38:12.835Z,99913.50
2022-07-29T17:43:15.586Z,99926.63
2022-07-29T17:48:18.673Z,99934.41
2022-07-29T17:53:23.208Z,99934.47
2022-07-29T17:58:26.198Z,99935.69
2022-07-29T18:03:28.886Z,99937.56
2022-07-29T18:08:33.019Z,99939.28
2022-07-29T18:13:35.734Z,99940.00
2022-07-29T18:18:38.730Z,99934.38
2022-07-29T18:23:42.799Z,99928.78
2022-07-29T18:28:45.555Z,99928.78
2022-07-29T18:33:48.259Z,99933.06
2022-07-29T18:38:52.350Z,99930.81
2022-07-29T18:43:55.027Z,99928.16
2022-07-29T18:48:58.054Z,99928.31
2022-07-29T18:54:02.170Z,99928.06
2022-07-29T18:59:05.335Z,99925.28
2022-07-29T19:04:08.259Z,99935.63
2022-07-29T19:09:12.508Z,99934.38
2022-07-29T19:14:15.433Z,99941.22
2022-07-29T19:19:18.247Z,99947.53
2022-07-29T19:24:22.522Z,99948.69
2022-07-29T19:29:26.479Z,99957.06
2022-07-29T19:34:29.501Z,99950.75
2022-07-29T19:39:35.248Z,99950.38
2022-07-29T19:44:38.768Z,99946.13
2022-07-29T19:49:41.618Z,99946.50
2022-07-29T19:54:46.359Z,99949.53
2022-07-29T19:59:49.161Z,99946.50
2022-07-29T20:04:52.419Z,99950.25
2022-07-29T20:09:56.705Z,99957.22
2022-07-29T20:14:59.863Z,99958.53
2022-07-29T20:20:04.172Z,99960.28
2022-07-29T20:25:10.012Z,99953.25
2022-07-29T20:30:14.378Z,99953.09
2022-07-29T20:35:17.316Z,99954.28
2022-07-29T20:40:25.365Z,99955.81
2022-07-29T20:45:28.073Z,99964.91
2022-07-29T20:50:30.826Z,99964.69
2022-07-29T20:55:34.887Z,99975.88
2022-07-29T21:00:37.834Z,99979.84
2022-07-29T21:05:43.210Z,99990.03
2022-07-29T21:10:48.242Z,99994.94
2022-07-29T21:15:51.854Z,99987.38
2022-07-29T21:20:55.035Z,99986.22
2022-07-29T21:26:00.409Z,99987.47
2022-07-29T21:31:05.989Z,99993.91
2022-07-29T21:36:46.068Z,99996.56
2022-07-29T21:41:33.671Z,99998.59
2022-07-29T21:46:36.575Z,100013.59
2022-07-29T21:51:39.879Z,100012.19
2022-07-29T21:56:43.933Z,100013.03
2022-07-29T22:01:54.027Z,100023.94
2022-07-29T22:06:58.051Z,100017.94
2022-07-29T22:12:02.829Z,100020.66
2022-07-29T22:17:05.731Z,100018.66
2022-07-29T22:22:08.482Z,100023.53
2022-07-29T22:27:12.863Z,100025.81
2022-07-29T22:32:15.582Z,100015.22
2022-07-29T22:37:18.450Z,100032.66
2022-07-29T22:42:22.512Z,100044.22
2022-07-29T22:47:46.317Z,100034.88
2022-07-29T22:52:48.125Z,100040.47
2022-07-29T22:57:52.425Z,100055.78
2022-07-29T23:02:55.137Z,100059.69
2022-07-29T23:07:57.850Z,100050.97
2022-07-29T23:13:01.910Z,100049.28
2022-07-29T23:18:04.846Z,100055.28
2022-07-29T23:23:07.599Z,100057.88
2022-07-29T23:28:13.168Z,100053.91
2022-07-29T23:33:16.091Z,100049.25
2022-07-29T23:38:19.069Z,100055.41
2022-07-29T23:43:23.325Z,100057.25
2022-07-29T23:48:27.067Z,100062.47
2022-07-29T23:53:29.933Z,100062.81
2022-07-29T23:58:34.359Z,100057.97
